• Join FlightAware (Why Join?)
  • Login
  • US Flag 
02:02AM EDT


 

Airport Tracker/Info


-or-


 

Live Flight TrackerFlight Track Log ✈ N6198Q ✈ 24-Jun-2013 ✈ KTMB - KLAL

Flight Track Log - Related Links

Times and Time Zones

All times are in EDT time to prevent confusion due to time zone crossing. See the N6198Q flight status page for this flight to view local times or setup timezone preferences in your user account.

Time Position Orientation Groundspeed Altitude Reporting Facility
EDT Latitude Longitude Course Direction KTS MPH feet Rate Location/Type
08:47AM 26.1244 -80.7603 329° Northwest 114 131 4,500  Level Miami Center
08:48AM 26.1514 -80.7706 341° North 102 117 4,500  Level Miami Center
08:49AM 26.1739 -80.7828 334° Northwest 97 112 4,500  Level Miami Center
08:50AM 26.1986 -80.7928 340° North 92 106 4,500  Level Miami Center
08:51AM 26.2211 -80.8097 326° Northwest 92 106 4,500  Level Miami Center
08:52AM 26.2439 -80.8244 330° Northwest 92 106 4,500  Level Miami Center
08:53AM 26.0057 -80.6708 329° Northwest  Level Estimated
08:53AM 26.2683 -80.8414 328° Northwest 92 106 4,600  Level Miami Center
08:54AM 26.2908 -80.8561 330° Northwest 98 113 4,500 -60 Descending Miami Center
08:55AM 26.3156 -80.8733 328° Northwest 98 113 4,500  Level Miami Center
08:56AM 26.3381 -80.8878 330° Northwest 98 113 4,500  Level Miami Center
08:57AM 26.3606 -80.9050 326° Northwest 98 113 4,500  Level Miami Center
08:58AM 26.3853 -80.9219 328° Northwest 98 113 4,500  Level Miami Center
08:59AM 26.4078 -80.9344 334° Northwest 98 113 4,500  Level Miami Center
09:00AM 26.4303 -80.9492 330° Northwest 98 113 4,500  Level Miami Center
09:01AM 26.4572 -80.9639 334° Northwest 98 113 4,500  Level Miami Center
09:02AM 26.4797 -80.9764 334° Northwest 98 113 4,500  Level Miami Center
09:03AM 26.5022 -80.9908 330° Northwest 98 113 4,500  Level Miami Center
09:04AM 26.5247 -81.0081 326° Northwest 98 113 4,600  Climbing Miami Center
09:05AM 26.5514 -81.0253 330° Northwest 98 113 4,500 -60 Descending Miami Center
09:06AM 26.5739 -81.0400 330° Northwest 98 113 4,500  Level Miami Center
09:07AM 26.5983 -81.0617 322° Northwest 98 113 4,500  Level Miami Center
09:08AM 26.6189 -81.0717 336° Northwest 98 113 4,500  Level Miami Center
09:09AM 26.6436 -81.0911 325° Northwest 98 113 4,500  Level Miami Center
09:10AM 26.6681 -81.1083 328° Northwest 98 113 4,500  Level Miami Center
09:11AM 26.6925 -81.1256 328° Northwest 98 113 4,500  Level Miami Center
09:12AM 26.7153 -81.1381 334° Northwest 98 113 4,500  Level Miami Center
09:13AM 26.7356 -81.1572 320° Northwest 98 113 4,500  Level Miami Center
09:14AM 26.7622 -81.1744 330° Northwest 98 113 4,600  Climbing Miami Center
09:15AM 26.7867 -81.1894 331° Northwest 98 113 4,600  Level Miami Center
09:16AM 26.8111 -81.2089 325° Northwest 98 113 4,600 -60 Level Miami Center
09:17AM 26.8317 -81.2214 332° Northwest 98 113 4,500 -60 Descending Miami Center
09:18AM 26.8522 -81.2383 324° Northwest 98 113 4,500  Level Miami Center
09:19AM 26.8786 -81.2603 323° Northwest 98 113 4,500  Level Miami Center
09:20AM 26.9031 -81.2753 331° Northwest 98 113 4,500  Level Miami Center
09:21AM 26.9258 -81.2856 338° Northwest 98 113 4,500  Level Miami Center
09:22AM 26.9464 -81.3000 328° Northwest 98 113 4,600  Climbing Miami Center
09:23AM 26.9708 -81.3150 331° Northwest 98 113 4,500 -60 Descending Miami Center
09:24AM 26.9975 -81.3325 330° Northwest 98 113 4,500  Level Miami Center
09:25AM 27.0200 -81.3450 334° Northwest 98 113 4,500  Level Miami Center
09:26AM 27.0425 -81.3575 334° Northwest 93 107 4,500  Level Miami Center
09:27AM 27.0628 -81.3769 320° Northwest 99 114 4,500  Level Miami Center
09:28AM 27.0875 -81.3919 332° Northwest 99 114 4,500  Level Miami Center
09:29AM 27.1078 -81.4089 323° Northwest 94 108 4,600  Climbing Miami Center
09:30AM 27.1303 -81.4214 334° Northwest 94 108 4,600 -60 Level Miami Center
09:31AM 27.1547 -81.4411 324° Northwest 94 108 4,500 -60 Descending Miami Center
09:32AM 27.1775 -81.4536 334° Northwest 94 108 4,500  Level Miami Center
09:33AM 27.2019 -81.4711 328° Northwest 94 108 4,500  Level Miami Center
09:34AM 27.2242 -81.4883 325° Northwest 94 108 4,500  Level Miami Center
09:35AM 27.2467 -81.5056 326° Northwest 94 108 4,500  Level Miami Center
09:36AM 27.2714 -81.5181 336° Northwest 94 108 4,500  Level Miami Center
09:37AM 27.2936 -81.5353 325° Northwest 94 108 4,600  Climbing Miami Center
09:38AM 27.3183 -81.5528 328° Northwest 94 108 4,600 -60 Level Miami Center
09:39AM 27.3406 -81.5700 325° Northwest 94 108 4,500 -60 Descending Miami Center
09:40AM 27.3631 -81.5850 329° Northwest 94 108 4,500  Level Miami Center
09:41AM 27.3878 -81.6000 332° Northwest 94 108 4,500  Level Miami Center
09:42AM 27.4122 -81.6150 331° Northwest 94 108 4,500  Level Miami Center
09:43AM 27.4367 -81.6300 331° Northwest 94 108 4,500  Level Miami Center
09:44AM 27.4614 -81.6453 331° Northwest 94 108 4,500  Level Miami Center
09:45AM 27.4836 -81.6625 325° Northwest 94 108 4,600  Climbing Miami Center
09:46AM 27.5061 -81.6797 326° Northwest 94 108 4,600  Level Miami Center
09:47AM 27.5306 -81.6947 331° Northwest 99 114 4,600 -60 Level Miami Center
09:48AM 27.5531 -81.7075 333° Northwest 94 108 4,500 -60 Descending Miami Center
09:49AM 27.5778 -81.7225 332° Northwest 100 115 4,500  Level Miami Center
09:50AM 27.5981 -81.7375 327° Northwest 100 115 4,500  Level Miami Center
09:51AM 27.6203 -81.7572 322° Northwest 94 108 4,500  Level Miami Center
09:52AM 27.6406 -81.7744 323° Northwest 94 108 4,600  Climbing Miami Center
09:53AM 27.6650 -81.7897 331° Northwest 94 108 4,600 -60 Level Miami Center
09:54AM 27.6853 -81.8092 320° Northwest 94 108 4,500 -120 Descending Miami Center
09:55AM 27.7078 -81.8242 329° Northwest 101 116 4,400 -180 Descending Miami Center
09:56AM 27.7322 -81.8394 331° Northwest 95 109 4,200 -540 Descending Miami Center
09:57AM 27.7631 -81.8547 336° Northwest 102 117 3,400 -420 Descending Miami Center
09:58AM 27.7878 -81.8675 335° Northwest 102 117 3,400  Level Miami Center
09:59AM 27.8103 -81.8803 333° Northwest 96 110 3,500 60 Climbing Miami Center
10:00AM 27.8322 -81.9025 270° West 96 110 3,600  Climbing Miami Center
10:01AM 27.8333 -81.9160 270° West  Level FlightAware Approximate
10:01AM 27.8461 -81.9289 301° West 96 110 3,600  Level Miami Center
10:02AM 27.8533 -81.9597 285° West 96 110 3,400 -600 Descending Miami Center
10:03AM 27.8647 -81.9931 291° West 106 122 2,500 -900 Descending Miami Center
10:05AM 27.9069 -82.0017 326° Northwest  Level Estimated